WetterOnline ( https://www.wetteronline.de )

Wetter aktuell Bad Rappenau

Aktuelles Wetter: Waibstadt (237m)

6-stündlich | Neueste Meldungen
Ortszeit Temperatur Wetter
Fr, 20.05. 14:00 27.8° C bedeckt
Fr, 20.05. 8:00 16.9° C bewölkt
Fr, 20.05. 2:00 17.2° C wolkig
Do, 19.05. 20:00 26.7° C bewölkt
Do, 19.05. 14:00 27.8° C fast wolkenlos
Do, 19.05. 8:00 16.8° C wolkig
Do, 19.05. 2:00 15.9° C wolkig
Mi, 18.05. 20:00 24.9° C leicht bewölkt
Ortszeit Temperatur Wetter
Fr, 20.05. 19:30 25.2° C bedeckt
Fr, 20.05. 19:20 25.2° C bedeckt
Fr, 20.05. 19:10 24.8° C bewölkt
Fr, 20.05. 19:00 24.9° C leicht bewölkt
Fr, 20.05. 18:50 24.9° C leicht bewölkt
Fr, 20.05. 18:40 25.3° C bewölkt
Fr, 20.05. 18:30 24.9° C bewölkt
Fr, 20.05. 18:00 23.6° C bedeckt
Fr, 20.05. 17:30 24.0° C wolkig
Fr, 20.05. 17:00 25.2° C leichter Regen
Fr, 20.05. 16:30 26.8° C wolkig
Ortszeit Relative Feuchte Sichtweite
Fr, 20.05. 14:00 48% 50 km
Fr, 20.05. 8:00 88% 40 km
Fr, 20.05. 2:00 86% 45 km
Do, 19.05. 20:00 49% 55 km
Do, 19.05. 14:00 45% 55 km
Do, 19.05. 8:00 65% 55 km
Do, 19.05. 2:00 76% 50 km
Mi, 18.05. 20:00 45% 55 km
Ortszeit Relative Feuchte Sichtweite
Fr, 20.05. 19:30 55% 45 km
Fr, 20.05. 19:20 55% -
Fr, 20.05. 19:10 56% -
Fr, 20.05. 19:00 55% 50 km
Fr, 20.05. 18:50 55% -
Fr, 20.05. 18:40 56% -
Fr, 20.05. 18:30 59% 50 km
Fr, 20.05. 18:00 63% 45 km
Fr, 20.05. 17:30 64% 50 km
Fr, 20.05. 17:00 53% 40 km
Fr, 20.05. 16:30 47% 35 km
Ortszeit Niederschlagsmenge Niederschlagsart
Fr, 20.05. 14:00 0.0 l/m2 in 6 Std. -
Fr, 20.05. 8:00 0.1 l/m2 in 12 Std. -
Fr, 20.05. 2:00 0.1 l/m2 in 6 Std. Regen
Do, 19.05. 20:00 0.0 l/m2 in 12 Std. -
Do, 19.05. 14:00 0.0 l/m2 in 6 Std. -
Do, 19.05. 8:00 0.0 l/m2 in 12 Std. -
Do, 19.05. 2:00 0.0 l/m2 in 6 Std. -
Mi, 18.05. 20:00 0.0 l/m2 in 12 Std. -
Ortszeit Niederschlagsmenge Niederschlagsart
Fr, 20.05. 19:30 0.0 l/m2 in 1 Std. -
Fr, 20.05. 19:20 keine Meldung -
Fr, 20.05. 19:10 keine Meldung -
Fr, 20.05. 19:00 0.1 l/m2 in 1 Std. Regen
Fr, 20.05. 18:50 keine Meldung -
Fr, 20.05. 18:40 keine Meldung -
Fr, 20.05. 18:30 0.1 l/m2 in 1 Std. Schneeregen
Fr, 20.05. 18:00 0.1 l/m2 in 1 Std. Regen
Fr, 20.05. 17:30 0.1 l/m2 in 1 Std. Schneeregen
Fr, 20.05. 17:00 0.1 l/m2 in 1 Std. Regen
Fr, 20.05. 16:30 0.0 l/m2 in 1 Std. -
Ortszeit Stärke Spitze Richtung
km/h Bft. km/h Grad Sektor
Fr, 20.05. 14:00 13 3 33 250° W
Fr, 20.05. 8:00 7 2 14 90° O
Fr, 20.05. 2:00 4 1 40 130° SO
Do, 19.05. 20:00 13 3 31 280° W
Do, 19.05. 14:00 14 3 22 240° SW
Do, 19.05. 8:00 7 2 18 90° O
Do, 19.05. 2:00 7 2 19 90° O
Mi, 18.05. 20:00 9 2 28 100° O
Ortszeit Stärke Spitze Richtung
km/h Bft. km/h Grad Sektor
Fr, 20.05. 19:30 15 3 26 260° W
Fr, 20.05. 19:20 15 3 - 260° W
Fr, 20.05. 19:10 13 3 - 250° W
Fr, 20.05. 19:00 17 3 28 240° SW
Fr, 20.05. 18:50 17 3 - 240° SW
Fr, 20.05. 18:40 13 3 - 230° SW
Fr, 20.05. 18:30 11 2 29 220° SW
Fr, 20.05. 18:00 13 3 24 260° W
Fr, 20.05. 17:30 7 2 25 190° S
Fr, 20.05. 17:00 13 3 26 290° W
Fr, 20.05. 16:30 13 3 20 280° W
Ortszeit Untergrenze Bedeckung Gattung
total tief tief mittel hoch
Fr, 20.05. 14:00 3300 m 8/8 8/8 - - -
Fr, 20.05. 8:00 3600 m 7/8 7/8 - - -
Fr, 20.05. 2:00 3900 m 8/8 1/8 - - -
Do, 19.05. 20:00 3900 m 8/8 5/8 - - -
Do, 19.05. 14:00 8100 m 1/8 0/8 - - -
Do, 19.05. 8:00 8400 m 7/8 0/8 - - -
Do, 19.05. 2:00 9000 m 8/8 0/8 - - -
Mi, 18.05. 20:00 10500 m 6/8 0/8 - - -
Ortszeit Bedeckungsgrad in Achtel und Wolkenuntergrenze
Fr, 20.05. 19:30 7(3600m) 8(4500m)
Fr, 20.05. 19:20 7(3600m) 8(4500m)
Fr, 20.05. 19:10 7
Fr, 20.05. 19:00 1(3900m) 4(10500m) 5(12000m)
Fr, 20.05. 18:50 1(3900m) 4(10500m) 5(12000m)
Fr, 20.05. 18:40 7
Fr, 20.05. 18:30 3(3000m) 7(3900m)
Fr, 20.05. 18:00 5(3000m) 8(4500m) 8(9000m)
Fr, 20.05. 17:30 1(1800m) 7(3300m) 7(4200m)
Fr, 20.05. 17:00 1(2100m) 7(2700m) 8(3600m)
Fr, 20.05. 16:30 2(2400m) 8(3900m) 8(4500m)
Ortszeit Luftdruck NN (hPa) Tendenz (hPa in 3 Std.)
Fr, 20.05. 14:00 1016 - 3,0
Fr, 20.05. 8:00 1021 - 0,2
Fr, 20.05. 2:00 1022 - 0,4
Do, 19.05. 20:00 1018 + 0,8
Do, 19.05. 14:00 1019 - 0,9
Do, 19.05. 8:00 1021 + 0,2
Do, 19.05. 2:00 1021 + 0,3
Mi, 18.05. 20:00 1020 - 0,5
Ortszeit Luftdruck NN (hPa) Tendenz (hPa in 3 Std.)
Fr, 20.05. 19:30 1013 - 2,3
Fr, 20.05. 19:20 1013 keine Meldung
Fr, 20.05. 19:10 1013 keine Meldung
Fr, 20.05. 19:00 1013 - 2,1
Fr, 20.05. 18:50 1013 keine Meldung
Fr, 20.05. 18:40 1013 keine Meldung
Fr, 20.05. 18:30 1014 - 1,4
Fr, 20.05. 18:00 1015 - 0,4
Fr, 20.05. 17:30 1015 - 1,4
Fr, 20.05. 17:00 1017 + 0,2
Fr, 20.05. 16:30 1016 - 2,0
Ortszeit Schneehöhe (cm)
Fr, 20.05. 14:00 0
Fr, 20.05. 8:00 0
Fr, 20.05. 2:00 0
Do, 19.05. 20:00 0
Do, 19.05. 14:00 0
Do, 19.05. 8:00 0
Do, 19.05. 2:00 0
Mi, 18.05. 20:00 0
Ortszeit Schneehöhe (cm)
Fr, 20.05. 19:30 0
Fr, 20.05. 19:20 0
Fr, 20.05. 19:10 0
Fr, 20.05. 19:00 0
Fr, 20.05. 18:50 0
Fr, 20.05. 18:40 0
Fr, 20.05. 18:30 0
Fr, 20.05. 18:00 0
Fr, 20.05. 17:30 0
Fr, 20.05. 17:00 0
Fr, 20.05. 16:30 0
Link zu dieser Seite / Seite empfehlen

Das Wetter in ...